createdAt,value
2018-12-07T00:00:39.628Z,0
2018-12-07T00:01:20.347Z,0
2018-12-07T00:02:01.174Z,0
2018-12-07T00:02:41.981Z,0
2018-12-07T00:03:22.699Z,0
2018-12-07T00:04:03.494Z,0
2018-12-07T00:04:44.275Z,0
2018-12-07T00:05:25.060Z,0
2018-12-07T00:06:05.776Z,0
2018-12-07T00:06:46.521Z,0
2018-12-07T00:07:27.251Z,0
2018-12-07T00:08:08.064Z,0
2018-12-07T00:08:48.928Z,0
2018-12-07T00:09:29.743Z,0
2018-12-07T00:10:12.025Z,0
2018-12-07T00:10:52.761Z,0
2018-12-07T00:11:33.554Z,0
2018-12-07T00:12:14.323Z,0
2018-12-07T00:12:55.054Z,0
2018-12-07T00:13:35.784Z,0
2018-12-07T00:14:16.557Z,0
2018-12-07T00:14:57.348Z,0
2018-12-07T00:15:38.074Z,0
2018-12-07T00:16:18.780Z,0
2018-12-07T00:16:59.621Z,0
2018-12-07T00:17:40.399Z,0
2018-12-07T00:18:21.218Z,0
2018-12-07T00:19:01.942Z,0
2018-12-07T00:19:47.814Z,0
2018-12-07T00:20:23.537Z,0
2018-12-07T00:21:04.315Z,0
2018-12-07T00:21:45.010Z,0
2018-12-07T00:22:25.761Z,0
2018-12-07T00:23:06.559Z,0
2018-12-07T00:23:47.338Z,12
2018-12-07T00:24:30.091Z,12
2018-12-07T00:25:10.845Z,16
2018-12-07T00:25:51.535Z,16
2018-12-07T00:26:32.309Z,16
2018-12-07T00:27:13.019Z,16
2018-12-07T00:27:53.879Z,0
2018-12-07T00:28:34.587Z,0
2018-12-07T00:29:15.287Z,0
2018-12-07T00:29:56.102Z,0
2018-12-07T00:30:36.858Z,0
2018-12-07T00:31:17.694Z,0
2018-12-07T00:31:58.435Z,0
2018-12-07T00:32:39.118Z,0
2018-12-07T00:33:19.868Z,0
2018-12-07T00:34:00.616Z,0
2018-12-07T00:34:41.424Z,0
2018-12-07T00:35:22.232Z,0
2018-12-07T00:36:02.980Z,0
2018-12-07T00:36:43.710Z,0
2018-12-07T00:37:24.511Z,0
2018-12-07T00:38:05.631Z,0
2018-12-07T00:38:46.530Z,0
2018-12-07T00:39:27.278Z,0
2018-12-07T00:40:07.976Z,0
2018-12-07T00:40:48.773Z,0
2018-12-07T00:41:29.602Z,0
2018-12-07T00:42:10.395Z,0
2018-12-07T00:42:51.159Z,0
2018-12-07T00:43:31.946Z,0
2018-12-07T00:44:12.673Z,0
2018-12-07T00:44:53.402Z,0
2018-12-07T00:45:34.222Z,0
2018-12-07T00:46:14.921Z,0
2018-12-07T00:46:55.655Z,0
2018-12-07T00:47:36.491Z,0
2018-12-07T00:48:17.309Z,0
2018-12-07T00:48:58.118Z,0
2018-12-07T00:49:40.561Z,0
2018-12-07T00:50:21.266Z,0
2018-12-07T00:51:02.133Z,0
2018-12-07T00:51:42.863Z,0
2018-12-07T00:52:23.570Z,0
2018-12-07T00:53:06.211Z,0
2018-12-07T00:53:46.993Z,0
2018-12-07T00:54:27.768Z,0
2018-12-07T00:55:08.484Z,0
2018-12-07T00:55:49.238Z,0
2018-12-07T00:56:30.003Z,0
2018-12-07T00:57:10.867Z,0
2018-12-07T00:57:51.651Z,0
2018-12-07T00:58:32.394Z,0
2018-12-07T00:59:13.134Z,0
2018-12-07T00:59:53.879Z,0
2018-12-07T01:00:34.694Z,0
2018-12-07T01:01:15.510Z,0
2018-12-07T01:01:56.346Z,0
2018-12-07T01:02:37.044Z,0
2018-12-07T01:03:17.757Z,0
2018-12-07T01:03:58.574Z,0
2018-12-07T01:04:39.308Z,0
2018-12-07T01:05:20.012Z,0
2018-12-07T01:06:00.709Z,0
2018-12-07T01:06:41.425Z,0
2018-12-07T01:07:22.257Z,0
2018-12-07T01:08:02.959Z,0
2018-12-07T01:08:43.730Z,0
2018-12-07T01:09:28.269Z,0
2018-12-07T01:10:09.080Z,0
2018-12-07T01:10:49.881Z,0
2018-12-07T01:11:30.579Z,0
2018-12-07T01:12:11.379Z,0
2018-12-07T01:12:52.128Z,0
2018-12-07T01:13:32.890Z,0
2018-12-07T01:14:13.612Z,0
2018-12-07T01:14:54.397Z,0
2018-12-07T01:15:35.146Z,0
2018-12-07T01:16:15.917Z,0
2018-12-07T01:16:56.723Z,0
2018-12-07T01:17:37.511Z,0
2018-12-07T01:18:18.293Z,0
2018-12-07T01:18:59.030Z,0
2018-12-07T01:19:39.797Z,0
2018-12-07T01:20:20.633Z,0
2018-12-07T01:21:01.353Z,0
2018-12-07T01:21:42.068Z,0
2018-12-07T01:22:22.874Z,0
2018-12-07T01:23:03.695Z,0
2018-12-07T01:23:44.459Z,0
2018-12-07T01:24:25.184Z,0
2018-12-07T01:25:06.029Z,0
2018-12-07T01:25:46.852Z,0
2018-12-07T01:26:27.599Z,0
2018-12-07T01:27:08.346Z,0
2018-12-07T01:27:49.048Z,0
2018-12-07T01:28:29.813Z,0
2018-12-07T01:29:10.591Z,0
2018-12-07T01:29:51.380Z,0
2018-12-07T01:30:32.144Z,0
2018-12-07T01:31:12.949Z,0
2018-12-07T01:31:53.749Z,0
2018-12-07T01:32:34.548Z,0
2018-12-07T01:33:15.252Z,0
2018-12-07T01:33:55.984Z,0
2018-12-07T01:34:36.704Z,0
2018-12-07T01:35:17.480Z,0
2018-12-07T01:35:58.349Z,0
2018-12-07T01:36:39.207Z,0
2018-12-07T01:37:19.926Z,0
2018-12-07T01:38:00.627Z,0
2018-12-07T01:38:41.443Z,0
2018-12-07T01:39:22.148Z,0
2018-12-07T01:40:02.863Z,0
2018-12-07T01:40:43.604Z,0
2018-12-07T01:41:24.363Z,0
2018-12-07T01:42:05.172Z,0
2018-12-07T01:42:45.998Z,0
2018-12-07T01:43:26.798Z,0
2018-12-07T01:44:07.494Z,0
2018-12-07T01:44:48.207Z,0
2018-12-07T01:45:28.914Z,0
2018-12-07T01:46:09.692Z,0
2018-12-07T01:46:50.481Z,0
2018-12-07T01:47:31.191Z,0
2018-12-07T01:48:11.998Z,0
2018-12-07T01:48:52.786Z,0
2018-12-07T01:49:33.592Z,0
2018-12-07T01:50:14.353Z,0
2018-12-07T01:50:55.095Z,0
2018-12-07T01:51:35.842Z,0
2018-12-07T01:52:16.621Z,0
2018-12-07T01:52:57.382Z,0
2018-12-07T01:53:38.316Z,0
2018-12-07T01:54:19.111Z,0
2018-12-07T01:54:59.853Z,0
2018-12-07T01:55:40.671Z,0
2018-12-07T01:56:21.461Z,0
2018-12-07T01:57:02.202Z,0
2018-12-07T01:57:42.912Z,0
2018-12-07T01:58:23.613Z,0
2018-12-07T01:59:04.413Z,0
2018-12-07T01:59:45.195Z,0
2018-12-07T02:00:25.929Z,0
2018-12-07T02:01:06.726Z,0
2018-12-07T02:01:47.462Z,0
2018-12-07T02:02:28.343Z,0
2018-12-07T02:03:09.125Z,0
2018-12-07T02:03:49.896Z,0
2018-12-07T02:04:30.688Z,0
2018-12-07T02:05:11.446Z,0
2018-12-07T02:05:52.143Z,0
2018-12-07T02:06:32.866Z,0
2018-12-07T02:07:13.611Z,0
2018-12-07T02:07:56.048Z,0
2018-12-07T02:08:36.847Z,0
2018-12-07T02:09:17.615Z,0
2018-12-07T02:09:58.374Z,0
2018-12-07T02:10:39.087Z,0
2018-12-07T02:11:19.890Z,0
2018-12-07T02:12:00.677Z,0
2018-12-07T02:12:41.476Z,0
2018-12-07T02:13:22.212Z,0
2018-12-07T02:14:02.960Z,0
2018-12-07T02:14:43.735Z,0
2018-12-07T02:15:24.561Z,0
2018-12-07T02:16:05.335Z,0
2018-12-07T02:16:46.025Z,0
2018-12-07T02:17:26.723Z,0
2018-12-07T02:18:07.441Z,0
2018-12-07T02:18:48.233Z,0
2018-12-07T02:19:29.102Z,0
2018-12-07T02:20:09.852Z,0
2018-12-07T02:20:50.606Z,0
2018-12-07T02:21:31.317Z,0
2018-12-07T02:22:12.133Z,0
2018-12-07T02:22:52.965Z,0
2018-12-07T02:23:33.653Z,0
2018-12-07T02:24:14.386Z,0
2018-12-07T02:24:55.101Z,0
2018-12-07T02:25:35.888Z,0
2018-12-07T02:26:16.690Z,0
2018-12-07T02:26:57.491Z,0
2018-12-07T02:27:38.170Z,0
2018-12-07T02:28:21.299Z,0
2018-12-07T02:29:02.034Z,0
2018-12-07T02:29:42.796Z,0
2018-12-07T02:30:23.640Z,0
2018-12-07T02:31:04.355Z,0
2018-12-07T02:31:45.120Z,0
2018-12-07T02:32:25.960Z,0
2018-12-07T02:33:06.704Z,0
2018-12-07T02:33:47.510Z,0
2018-12-07T02:34:28.247Z,0
2018-12-07T02:35:09.020Z,0
2018-12-07T02:35:49.827Z,0
2018-12-07T02:36:30.561Z,0
2018-12-07T02:37:11.395Z,0
2018-12-07T02:37:52.185Z,0
2018-12-07T02:38:32.978Z,0
2018-12-07T02:39:13.779Z,0
2018-12-07T02:39:54.512Z,0
2018-12-07T02:40:35.285Z,0
2018-12-07T02:41:16.116Z,0
2018-12-07T02:41:56.889Z,0
2018-12-07T02:42:37.678Z,0
2018-12-07T02:43:18.381Z,0
2018-12-07T02:43:59.096Z,0
2018-12-07T02:44:39.870Z,0
2018-12-07T02:45:20.694Z,0
2018-12-07T02:46:01.480Z,0
2018-12-07T02:46:42.270Z,0
2018-12-07T02:47:22.998Z,0
2018-12-07T02:48:03.776Z,0
2018-12-07T02:48:44.609Z,0
2018-12-07T02:49:25.313Z,0
2018-12-07T02:50:06.041Z,0
2018-12-07T02:50:46.795Z,0
2018-12-07T02:51:27.595Z,0
2018-12-07T02:52:08.454Z,0
2018-12-07T02:52:49.221Z,0
2018-12-07T02:53:29.988Z,0
2018-12-07T02:54:10.748Z,0
2018-12-07T02:54:51.445Z,0
2018-12-07T02:55:32.249Z,0
2018-12-07T02:56:13.076Z,0
2018-12-07T02:56:53.847Z,0
2018-12-07T02:57:34.585Z,0
2018-12-07T02:58:15.362Z,0
2018-12-07T02:58:56.159Z,0
2018-12-07T02:59:36.999Z,0
2018-12-07T03:00:17.736Z,0
2018-12-07T03:00:58.441Z,0
2018-12-07T03:01:39.126Z,0
2018-12-07T03:02:19.931Z,0
2018-12-07T03:03:00.800Z,0
2018-12-07T03:03:41.557Z,0
2018-12-07T03:04:22.310Z,0
2018-12-07T03:05:03.000Z,0
2018-12-07T03:05:43.783Z,0
2018-12-07T03:06:24.569Z,0
2018-12-07T03:07:05.299Z,0
2018-12-07T03:07:46.046Z,0
2018-12-07T03:08:26.787Z,0
2018-12-07T03:09:07.544Z,0
2018-12-07T03:09:48.275Z,0
2018-12-07T03:10:28.969Z,0
2018-12-07T03:11:09.729Z,0
2018-12-07T03:11:50.524Z,0
2018-12-07T03:12:31.325Z,0
2018-12-07T03:13:12.047Z,0
2018-12-07T03:13:52.804Z,0
2018-12-07T03:14:33.598Z,0
2018-12-07T03:15:14.402Z,0
2018-12-07T03:15:55.152Z,0
2018-12-07T03:16:35.869Z,0
2018-12-07T03:17:16.624Z,0
2018-12-07T03:17:57.403Z,0
2018-12-07T03:18:38.221Z,0
2018-12-07T03:19:23.609Z,0
2018-12-07T03:20:04.311Z,0
2018-12-07T03:20:45.055Z,0
2018-12-07T03:21:25.788Z,0
2018-12-07T03:22:06.558Z,0
2018-12-07T03:22:47.368Z,0
2018-12-07T03:23:28.116Z,0
2018-12-07T03:24:08.878Z,0
2018-12-07T03:24:49.722Z,0
2018-12-07T03:25:30.521Z,0
2018-12-07T03:26:11.286Z,0
2018-12-07T03:26:52.037Z,0
2018-12-07T03:27:32.868Z,0
2018-12-07T03:28:13.637Z,0
2018-12-07T03:28:54.333Z,0
2018-12-07T03:29:35.040Z,0
2018-12-07T03:30:15.774Z,0
2018-12-07T03:30:56.569Z,0
2018-12-07T03:31:37.316Z,0
2018-12-07T03:32:18.003Z,0
2018-12-07T03:32:58.811Z,0
2018-12-07T03:33:39.572Z,0
2018-12-07T03:34:20.389Z,0
2018-12-07T03:35:01.122Z,0
2018-12-07T03:35:41.876Z,0
2018-12-07T03:36:22.606Z,0
2018-12-07T03:37:03.386Z,0
2018-12-07T03:37:44.220Z,0
2018-12-07T03:38:25.003Z,0
2018-12-07T03:39:05.774Z,0
2018-12-07T03:39:46.491Z,0
2018-12-07T03:40:27.272Z,0
2018-12-07T03:41:08.084Z,0
2018-12-07T03:41:48.825Z,0
2018-12-07T03:42:29.517Z,0
2018-12-07T03:43:10.208Z,0
2018-12-07T03:43:50.979Z,0
2018-12-07T03:44:31.709Z,0
2018-12-07T03:45:12.423Z,0
2018-12-07T03:45:53.197Z,0
2018-12-07T03:46:34.003Z,0
2018-12-07T03:47:14.796Z,0
2018-12-07T03:47:55.537Z,0
2018-12-07T03:48:36.249Z,0
2018-12-07T03:49:17.074Z,0
2018-12-07T03:49:57.858Z,0
2018-12-07T03:50:38.530Z,0
2018-12-07T03:51:19.262Z,0
2018-12-07T03:51:59.976Z,0
2018-12-07T03:52:40.813Z,0
2018-12-07T03:53:21.535Z,0
2018-12-07T03:54:02.370Z,0
2018-12-07T03:54:43.122Z,0
2018-12-07T03:55:23.832Z,0
2018-12-07T03:56:04.570Z,0
2018-12-07T03:56:45.388Z,0
2018-12-07T03:57:26.195Z,0
2018-12-07T03:58:06.970Z,0
2018-12-07T03:58:47.732Z,0
2018-12-07T03:59:28.569Z,0
2018-12-07T04:00:09.355Z,0
2018-12-07T04:00:50.145Z,0
2018-12-07T04:01:30.895Z,0
2018-12-07T04:02:11.611Z,0
2018-12-07T04:02:52.381Z,0
2018-12-07T04:03:33.209Z,0
2018-12-07T04:04:14.011Z,0
2018-12-07T04:04:54.887Z,0
2018-12-07T04:05:35.508Z,0
2018-12-07T04:06:16.242Z,0
2018-12-07T04:06:57.031Z,0
2018-12-07T04:07:37.766Z,0
2018-12-07T04:08:18.467Z,0
2018-12-07T04:08:59.225Z,0
2018-12-07T04:09:40.016Z,0
2018-12-07T04:10:20.836Z,0
2018-12-07T04:11:01.633Z,0
2018-12-07T04:11:42.383Z,0
2018-12-07T04:12:23.085Z,0
2018-12-07T04:13:03.784Z,0
2018-12-07T04:13:44.518Z,0
2018-12-07T04:14:25.359Z,0
2018-12-07T04:15:06.175Z,0
2018-12-07T04:15:46.890Z,0
2018-12-07T04:16:27.708Z,0
2018-12-07T04:17:08.461Z,0
2018-12-07T04:17:49.281Z,0
2018-12-07T04:18:29.968Z,0
2018-12-07T04:19:10.690Z,0
2018-12-07T04:19:51.515Z,0
2018-12-07T04:20:32.236Z,0
2018-12-07T04:21:12.955Z,0
2018-12-07T04:21:53.648Z,0
2018-12-07T04:22:34.408Z,0
2018-12-07T04:23:15.239Z,0
2018-12-07T04:23:55.965Z,0
2018-12-07T04:24:36.720Z,0
2018-12-07T04:25:17.556Z,0
2018-12-07T04:25:58.290Z,0
2018-12-07T04:26:39.130Z,0
2018-12-07T04:27:19.836Z,0
2018-12-07T04:28:00.520Z,0
2018-12-07T04:28:41.295Z,0
2018-12-07T04:29:22.036Z,0
2018-12-07T04:30:02.894Z,0
2018-12-07T04:30:43.718Z,0
2018-12-07T04:31:24.469Z,0
2018-12-07T04:32:05.182Z,0
2018-12-07T04:32:45.961Z,0
2018-12-07T04:33:26.737Z,0
2018-12-07T04:34:07.438Z,0
2018-12-07T04:34:48.137Z,0
2018-12-07T04:35:28.856Z,0
2018-12-07T04:36:09.654Z,0
2018-12-07T04:36:50.509Z,0
2018-12-07T04:37:31.268Z,0
2018-12-07T04:38:11.942Z,0
2018-12-07T04:38:52.637Z,0
2018-12-07T04:39:33.351Z,0
2018-12-07T04:40:14.154Z,0
2018-12-07T04:40:54.927Z,0
2018-12-07T04:41:35.647Z,0
2018-12-07T04:42:16.414Z,0
2018-12-07T04:42:57.165Z,0
2018-12-07T04:43:37.982Z,0
2018-12-07T04:44:18.726Z,0
2018-12-07T04:44:59.420Z,0
2018-12-07T04:45:40.117Z,0
2018-12-07T04:46:20.933Z,0
2018-12-07T04:47:01.723Z,0
2018-12-07T04:47:42.540Z,0
2018-12-07T04:48:23.306Z,0
2018-12-07T04:49:03.991Z,0
2018-12-07T04:49:44.752Z,0
2018-12-07T04:50:25.492Z,0
2018-12-07T04:51:06.230Z,0
2018-12-07T04:51:46.951Z,0
2018-12-07T04:52:27.692Z,0
2018-12-07T04:53:08.471Z,0
2018-12-07T04:53:49.255Z,0
2018-12-07T04:54:29.949Z,0
2018-12-07T04:55:10.758Z,0
2018-12-07T04:55:51.539Z,0
2018-12-07T04:56:33.695Z,0
2018-12-07T04:57:13.172Z,0
2018-12-07T04:57:53.851Z,0
2018-12-07T04:58:34.630Z,0
2018-12-07T04:59:15.417Z,0
2018-12-07T04:59:56.131Z,0
2018-12-07T05:00:36.864Z,0
2018-12-07T05:01:17.605Z,0
2018-12-07T05:01:58.464Z,0
2018-12-07T05:02:39.221Z,0
2018-12-07T05:03:20.019Z,0
2018-12-07T05:04:00.748Z,0
2018-12-07T05:04:41.485Z,0
2018-12-07T05:05:22.204Z,0
2018-12-07T05:06:03.034Z,0
2018-12-07T05:06:43.796Z,0
2018-12-07T05:07:24.499Z,0
2018-12-07T05:08:05.265Z,0
2018-12-07T05:08:46.123Z,0
2018-12-07T05:09:26.925Z,0
2018-12-07T05:10:07.746Z,0
2018-12-07T05:10:48.438Z,0
2018-12-07T05:11:29.251Z,0
2018-12-07T05:12:09.892Z,0
2018-12-07T05:12:50.700Z,0
2018-12-07T05:13:31.503Z,0
2018-12-07T05:14:12.264Z,0
2018-12-07T05:14:53.016Z,0
2018-12-07T05:15:33.729Z,0
2018-12-07T05:16:14.569Z,0
2018-12-07T05:16:55.289Z,0
2018-12-07T05:17:36.050Z,0
2018-12-07T05:18:16.801Z,0
2018-12-07T05:18:57.568Z,0
2018-12-07T05:19:38.373Z,0
2018-12-07T05:20:19.219Z,0
2018-12-07T05:21:00.019Z,0
2018-12-07T05:21:40.696Z,0
2018-12-07T05:22:21.455Z,0
2018-12-07T05:23:02.156Z,0
2018-12-07T05:23:42.989Z,0
2018-12-07T05:24:23.763Z,0
2018-12-07T05:25:04.511Z,0
2018-12-07T05:25:45.289Z,0
2018-12-07T05:26:26.157Z,0
2018-12-07T05:27:06.937Z,0
2018-12-07T05:27:47.662Z,0
2018-12-07T05:28:28.329Z,0
2018-12-07T05:29:09.166Z,0
2018-12-07T05:29:49.964Z,0
2018-12-07T05:30:30.717Z,0
2018-12-07T05:31:11.476Z,0
2018-12-07T05:31:52.183Z,0
2018-12-07T05:32:32.982Z,0
2018-12-07T05:33:13.795Z,0
2018-12-07T05:33:54.500Z,0
2018-12-07T05:34:35.328Z,0
2018-12-07T05:35:16.144Z,0
2018-12-07T05:35:56.912Z,0
2018-12-07T05:36:37.707Z,0
2018-12-07T05:37:18.435Z,0
2018-12-07T05:37:59.128Z,0
2018-12-07T05:38:39.939Z,0
2018-12-07T05:39:20.741Z,0
2018-12-07T05:40:01.530Z,0
2018-12-07T05:40:42.364Z,0
2018-12-07T05:41:23.130Z,0
2018-12-07T05:42:03.921Z,0
2018-12-07T05:42:44.686Z,0
2018-12-07T05:43:25.360Z,0
2018-12-07T05:44:06.080Z,0
2018-12-07T05:44:46.796Z,0
2018-12-07T05:45:27.647Z,0
2018-12-07T05:46:08.428Z,0
2018-12-07T05:46:49.153Z,0
2018-12-07T05:47:29.981Z,0
2018-12-07T05:48:10.818Z,0
2018-12-07T05:48:51.620Z,0
2018-12-07T05:49:32.419Z,0
2018-12-07T05:50:13.143Z,0
2018-12-07T05:50:53.976Z,0
2018-12-07T05:51:34.713Z,0
2018-12-07T05:52:15.447Z,0
2018-12-07T05:52:56.188Z,0
2018-12-07T05:53:36.911Z,0
2018-12-07T05:54:17.740Z,0
2018-12-07T05:54:58.550Z,0
2018-12-07T05:55:39.345Z,0
2018-12-07T05:56:20.201Z,0
2018-12-07T05:57:00.934Z,0
2018-12-07T05:57:41.655Z,0
2018-12-07T05:58:22.471Z,0
2018-12-07T05:59:03.228Z,0
2018-12-07T05:59:43.955Z,0
2018-12-07T06:00:24.722Z,0
2018-12-07T06:01:05.546Z,0
2018-12-07T06:01:46.365Z,0
2018-12-07T06:02:27.092Z,0
2018-12-07T06:03:07.803Z,0
2018-12-07T06:03:48.584Z,0
2018-12-07T06:04:29.425Z,0
2018-12-07T06:05:10.136Z,0
2018-12-07T06:05:50.873Z,0
2018-12-07T06:06:31.609Z,0
2018-12-07T06:07:12.393Z,0
2018-12-07T06:07:53.143Z,0
2018-12-07T06:08:33.860Z,0
2018-12-07T06:09:14.622Z,0
2018-12-07T06:09:55.468Z,0
2018-12-07T06:10:36.279Z,0
2018-12-07T06:11:17.060Z,0
2018-12-07T06:11:57.807Z,0
2018-12-07T06:12:38.590Z,0
2018-12-07T06:13:19.347Z,0
2018-12-07T06:14:00.131Z,0
2018-12-07T06:14:40.971Z,0
2018-12-07T06:15:21.757Z,0
2018-12-07T06:16:02.484Z,0
2018-12-07T06:16:43.233Z,0
2018-12-07T06:17:24.088Z,0
2018-12-07T06:18:04.789Z,0
2018-12-07T06:18:45.505Z,0
2018-12-07T06:19:26.256Z,0
2018-12-07T06:20:07.077Z,0
2018-12-07T06:20:47.892Z,0
2018-12-07T06:21:28.790Z,0
2018-12-07T06:22:09.547Z,0
2018-12-07T06:22:50.295Z,0
2018-12-07T06:23:31.037Z,0
2018-12-07T06:24:11.774Z,0
2018-12-07T06:24:52.630Z,0
2018-12-07T06:25:33.332Z,0
2018-12-07T06:26:14.081Z,0
2018-12-07T06:26:54.897Z,0
2018-12-07T06:27:35.689Z,0
2018-12-07T06:28:16.509Z,0
2018-12-07T06:28:57.217Z,0
2018-12-07T06:29:37.876Z,0
2018-12-07T06:30:18.601Z,0
2018-12-07T06:30:59.410Z,0
2018-12-07T06:31:40.188Z,0
2018-12-07T06:32:21.044Z,0
2018-12-07T06:33:01.780Z,0
2018-12-07T06:33:42.506Z,0
2018-12-07T06:34:23.317Z,0
2018-12-07T06:35:04.069Z,0
2018-12-07T06:35:44.803Z,0
2018-12-07T06:36:25.611Z,0
2018-12-07T06:37:08.225Z,0
2018-12-07T06:37:49.031Z,0
2018-12-07T06:38:29.808Z,0
2018-12-07T06:39:10.554Z,0
2018-12-07T06:39:52.306Z,0
2018-12-07T06:40:32.114Z,0
2018-12-07T06:41:12.966Z,0
2018-12-07T06:41:53.730Z,0
2018-12-07T06:42:34.473Z,0
2018-12-07T06:43:15.327Z,0
2018-12-07T06:43:56.118Z,0
2018-12-07T06:44:36.878Z,0
2018-12-07T06:45:17.595Z,0
2018-12-07T06:45:58.342Z,0
2018-12-07T06:46:39.144Z,0
2018-12-07T06:47:19.938Z,0
2018-12-07T06:48:00.747Z,0
2018-12-07T06:48:41.466Z,0
2018-12-07T06:49:22.181Z,0
2018-12-07T06:50:02.878Z,0
2018-12-07T06:50:43.709Z,0
2018-12-07T06:51:24.418Z,4
2018-12-07T06:52:05.158Z,4
2018-12-07T06:52:45.923Z,4
2018-12-07T06:53:26.725Z,0
2018-12-07T06:54:07.511Z,0
2018-12-07T06:54:48.333Z,0
2018-12-07T06:55:29.050Z,4
2018-12-07T06:56:09.766Z,4
2018-12-07T06:56:50.551Z,4
2018-12-07T06:57:31.365Z,0
2018-12-07T06:58:12.085Z,0
2018-12-07T06:58:54.758Z,4
2018-12-07T06:59:35.489Z,4
2018-12-07T07:00:16.270Z,4
2018-12-07T07:00:57.108Z,4
2018-12-07T07:01:37.873Z,4
2018-12-07T07:02:18.582Z,4
2018-12-07T07:02:59.283Z,4
2018-12-07T07:03:40.025Z,8
2018-12-07T07:04:20.888Z,8
2018-12-07T07:05:01.674Z,4
2018-12-07T07:05:42.453Z,8
2018-12-07T07:06:23.247Z,8
2018-12-07T07:07:05.257Z,8
2018-12-07T07:07:44.701Z,8
2018-12-07T07:08:25.508Z,8
2018-12-07T07:09:06.213Z,12
2018-12-07T07:09:46.991Z,8
2018-12-07T07:10:28.460Z,12
2018-12-07T07:11:09.214Z,8
2018-12-07T07:11:50.060Z,12
2018-12-07T07:12:30.755Z,12
2018-12-07T07:13:11.521Z,12
2018-12-07T07:13:52.385Z,16
2018-12-07T07:14:33.122Z,12
2018-12-07T07:15:13.833Z,16
2018-12-07T07:15:54.542Z,16
2018-12-07T07:16:35.308Z,16
2018-12-07T07:17:16.085Z,16
2018-12-07T07:17:56.822Z,20
2018-12-07T07:18:37.582Z,20
2018-12-07T07:19:18.407Z,20
2018-12-07T07:19:59.157Z,20
2018-12-07T07:20:39.952Z,24
2018-12-07T07:21:20.667Z,24
2018-12-07T07:22:01.377Z,24
2018-12-07T07:22:42.123Z,24
2018-12-07T07:23:22.866Z,24
2018-12-07T07:24:03.678Z,28
2018-12-07T07:24:44.499Z,28
2018-12-07T07:25:25.259Z,32
2018-12-07T07:26:06.004Z,28
2018-12-07T07:26:46.793Z,32
2018-12-07T07:27:27.542Z,32
2018-12-07T07:28:12.128Z,32
2018-12-07T07:28:52.909Z,32
2018-12-07T07:29:33.622Z,36
2018-12-07T07:30:14.401Z,36
2018-12-07T07:30:55.169Z,36
2018-12-07T07:31:43.164Z,40
2018-12-07T07:32:16.712Z,36
2018-12-07T07:32:57.410Z,40
2018-12-07T07:33:38.123Z,40
2018-12-07T07:34:18.990Z,40
2018-12-07T07:34:59.811Z,44
2018-12-07T07:35:40.525Z,40
2018-12-07T07:36:21.268Z,44
2018-12-07T07:37:02.096Z,48
2018-12-07T07:37:42.877Z,48
2018-12-07T07:38:23.636Z,44
2018-12-07T07:39:04.354Z,48
2018-12-07T07:39:45.068Z,48
2018-12-07T07:40:25.768Z,52
2018-12-07T07:41:06.549Z,52
2018-12-07T07:41:47.295Z,52
2018-12-07T07:42:28.158Z,52
2018-12-07T07:43:08.945Z,56
2018-12-07T07:43:49.669Z,56
2018-12-07T07:44:30.505Z,60
2018-12-07T07:45:11.287Z,56
2018-12-07T07:45:51.991Z,56
2018-12-07T07:46:32.736Z,60
2018-12-07T07:47:13.497Z,60
2018-12-07T07:47:54.302Z,60
2018-12-07T07:48:34.997Z,60
2018-12-07T07:49:17.661Z,64
2018-12-07T07:49:58.518Z,60
2018-12-07T07:50:39.290Z,64
2018-12-07T07:51:20.063Z,64
2018-12-07T07:52:00.818Z,68
2018-12-07T07:52:41.562Z,64
2018-12-07T07:53:22.378Z,68
2018-12-07T07:54:03.110Z,68
2018-12-07T07:54:43.817Z,72
2018-12-07T07:55:24.517Z,68
2018-12-07T07:56:05.264Z,72
2018-12-07T07:56:46.063Z,76
2018-12-07T07:57:26.925Z,72
2018-12-07T07:58:07.696Z,72
2018-12-07T07:58:48.448Z,76
2018-12-07T07:59:29.171Z,76
2018-12-07T08:00:09.903Z,76
2018-12-07T08:00:50.681Z,76
2018-12-07T08:01:31.395Z,80
2018-12-07T08:02:12.130Z,80
2018-12-07T08:02:52.995Z,80
2018-12-07T08:03:33.756Z,80
2018-12-07T08:04:14.551Z,84
2018-12-07T08:04:55.264Z,84
2018-12-07T08:05:37.670Z,88
2018-12-07T08:06:18.443Z,88
2018-12-07T08:06:59.195Z,88
2018-12-07T08:07:39.936Z,88
2018-12-07T08:08:20.725Z,92
2018-12-07T08:09:01.521Z,92
2018-12-07T08:09:42.351Z,92
2018-12-07T08:10:23.038Z,92
2018-12-07T08:11:03.774Z,96
2018-12-07T08:11:44.597Z,100
2018-12-07T08:12:25.392Z,100
2018-12-07T08:13:06.211Z,104
2018-12-07T08:13:46.954Z,104
2018-12-07T08:14:27.663Z,104
2018-12-07T08:15:08.391Z,104
2018-12-07T08:15:49.143Z,104
2018-12-07T08:16:29.950Z,96
2018-12-07T08:17:10.701Z,100
2018-12-07T08:17:51.488Z,96
2018-12-07T08:18:32.212Z,92
2018-12-07T08:19:12.994Z,92
2018-12-07T08:19:53.798Z,96
2018-12-07T08:20:34.536Z,96
2018-12-07T08:21:15.249Z,104
2018-12-07T08:21:55.985Z,108
2018-12-07T08:22:36.830Z,112
2018-12-07T08:23:17.602Z,124
2018-12-07T08:23:58.320Z,120
2018-12-07T08:24:39.130Z,144
2018-12-07T08:25:19.924Z,152
2018-12-07T08:26:00.786Z,140
2018-12-07T08:26:41.481Z,148
2018-12-07T08:27:22.263Z,148
2018-12-07T08:28:03.097Z,160
2018-12-07T08:28:43.868Z,168
2018-12-07T08:29:24.580Z,144
2018-12-07T08:30:05.262Z,136
2018-12-07T08:30:46.051Z,156
2018-12-07T08:31:26.879Z,160
2018-12-07T08:32:07.654Z,160
2018-12-07T08:32:50.198Z,168
2018-12-07T08:33:30.903Z,172
2018-12-07T08:34:13.206Z,172
2018-12-07T08:34:53.906Z,164
2018-12-07T08:35:34.671Z,160
2018-12-07T08:36:15.432Z,144
2018-12-07T08:36:56.151Z,152
2018-12-07T08:37:36.926Z,148
2018-12-07T08:38:17.723Z,160
2018-12-07T08:38:58.510Z,168
2018-12-07T08:39:39.249Z,172
2018-12-07T08:40:19.964Z,160
2018-12-07T08:41:00.684Z,140
2018-12-07T08:41:41.469Z,140
2018-12-07T08:42:22.282Z,144
2018-12-07T08:43:03.044Z,152
2018-12-07T08:43:43.819Z,152
2018-12-07T08:44:24.551Z,164
2018-12-07T08:45:05.349Z,208
2018-12-07T08:45:46.218Z,152
2018-12-07T08:46:26.959Z,200
2018-12-07T08:47:07.740Z,212
2018-12-07T08:47:50.694Z,192
2018-12-07T08:48:33.351Z,220
2018-12-07T08:49:14.155Z,216
2018-12-07T08:49:55.840Z,216
2018-12-07T08:50:36.016Z,228
2018-12-07T08:51:16.776Z,184
2018-12-07T08:51:59.180Z,244
2018-12-07T08:52:39.929Z,196
2018-12-07T08:53:20.849Z,180
2018-12-07T08:54:03.253Z,212
2018-12-07T08:54:45.546Z,184
2018-12-07T08:55:29.889Z,224
2018-12-07T08:56:12.684Z,188
2018-12-07T08:56:53.490Z,160
2018-12-07T08:57:36.065Z,160
2018-12-07T08:58:16.794Z,156
2018-12-07T08:58:57.678Z,156
2018-12-07T08:59:38.381Z,180
2018-12-07T09:00:20.667Z,164
2018-12-07T09:01:01.388Z,160
2018-12-07T09:01:42.168Z,160
2018-12-07T09:02:22.985Z,164
2018-12-07T09:03:05.602Z,164
2018-12-07T09:03:48.337Z,204
2018-12-07T09:04:29.167Z,276
2018-12-07T09:05:09.942Z,288
2018-12-07T09:05:50.766Z,296
2018-12-07T09:06:33.166Z,240
2018-12-07T09:07:13.924Z,192
2018-12-07T09:07:57.619Z,208
2018-12-07T09:08:40.393Z,220
2018-12-07T09:09:21.202Z,216
2018-12-07T09:10:01.985Z,176
2018-12-07T09:10:44.325Z,284
2018-12-07T09:11:25.067Z,292
2018-12-07T09:12:05.879Z,300
2018-12-07T09:12:46.602Z,236
2018-12-07T09:13:27.531Z,176
2018-12-07T09:14:08.105Z,276
2018-12-07T09:14:48.856Z,260
2018-12-07T09:15:29.655Z,264
2018-12-07T09:16:10.483Z,268
2018-12-07T09:16:51.210Z,280
2018-12-07T09:17:31.927Z,284
2018-12-07T09:18:14.342Z,288
2018-12-07T09:18:56.822Z,292
2018-12-07T09:19:37.673Z,288
2018-12-07T09:20:18.369Z,284
2018-12-07T09:20:59.109Z,180
2018-12-07T09:21:39.913Z,148
2018-12-07T09:22:20.708Z,224
2018-12-07T09:23:01.505Z,284
2018-12-07T09:23:49.343Z,280
2018-12-07T09:24:22.914Z,260
2018-12-07T09:25:05.168Z,172
2018-12-07T09:25:45.931Z,128
2018-12-07T09:26:27.044Z,276
2018-12-07T09:27:09.731Z,284
2018-12-07T09:27:50.510Z,284
2018-12-07T09:28:31.239Z,288
2018-12-07T09:29:13.168Z,292
2018-12-07T09:29:53.877Z,296
2018-12-07T09:30:34.620Z,296
2018-12-07T09:31:15.324Z,296
2018-12-07T09:31:56.058Z,296
2018-12-07T09:32:36.853Z,296
2018-12-07T09:33:17.588Z,292
2018-12-07T09:33:58.329Z,292
2018-12-07T09:34:39.141Z,292
2018-12-07T09:35:19.949Z,292
2018-12-07T09:36:00.802Z,296
2018-12-07T09:36:41.538Z,296
2018-12-07T09:37:22.254Z,288
2018-12-07T09:38:03.068Z,288
2018-12-07T09:38:43.800Z,288
2018-12-07T09:39:24.500Z,288
2018-12-07T09:40:05.203Z,284
2018-12-07T09:40:45.922Z,284
2018-12-07T09:41:26.746Z,268
2018-12-07T09:42:07.571Z,272
2018-12-07T09:42:48.410Z,284
2018-12-07T09:43:29.125Z,284
2018-12-07T09:44:09.965Z,280
2018-12-07T09:44:50.767Z,224
2018-12-07T09:45:31.571Z,284
2018-12-07T09:46:12.398Z,284
2018-12-07T09:46:53.138Z,292
2018-12-07T09:47:33.940Z,300
2018-12-07T09:48:14.832Z,192
2018-12-07T09:48:55.648Z,128
2018-12-07T09:49:36.352Z,132
2018-12-07T09:50:17.121Z,128
2018-12-07T09:50:57.827Z,124
2018-12-07T09:51:38.571Z,120
2018-12-07T09:52:19.407Z,124
2018-12-07T09:53:00.137Z,132
2018-12-07T09:53:40.927Z,128
2018-12-07T09:54:21.630Z,136